Time;durP1;ratioP1;P1;durP2;ratioP2;P2;SDS_P1;SDS_P2;PMS_P1;PMS_P2;Temp;Humidity;BMP_temperature;BMP_pressure;BME280_temperature;BME280_humidity;BME280_pressure;Samples;Min_cycle;Max_cycle;Signal;HPM_P1;HPM_P2
2022/10/18 04:00:21;;;;;;;1999.90;999.90;;;13.50;99.90;;;;;;6087592;22;21098;-74
2022/10/18 04:02:47;;;;;;;1999.90;999.90;;;13.50;99.90;;;;;;5054406;28;20045;-74
2022/10/18 04:05:13;;;;;;;1999.90;999.90;;;13.50;99.90;;;;;;5054914;28;20095;-74
2022/10/18 04:07:38;;;;;;;1999.90;999.90;;;13.50;99.90;;;;;;5053675;28;20029;-75
2022/10/18 04:10:04;;;;;;;1999.90;999.90;;;13.50;99.90;;;;;;5055530;28;20049;-75
2022/10/18 04:12:30;;;;;;;1999.90;999.90;;;13.60;99.90;;;;;;5055371;28;20065;-75
2022/10/18 04:14:55;;;;;;;1999.90;999.90;;;13.60;99.90;;;;;;5054856;28;20073;-75
2022/10/18 04:17:21;;;;;;;1999.90;999.90;;;13.60;99.90;;;;;;5054407;28;20029;-75
2022/10/18 04:19:48;;;;;;;1999.90;999.90;;;13.60;99.90;;;;;;5054333;28;20113;-75
2022/10/18 04:22:13;;;;;;;1999.90;999.90;;;13.70;99.90;;;;;;5054172;28;20837;-75
2022/10/18 04:24:39;;;;;;;1999.90;999.90;;;13.70;99.90;;;;;;5053648;28;20042;-75
2022/10/18 04:27:06;;;;;;;1999.90;999.90;;;13.70;99.90;;;;;;5054027;28;20025;-75
2022/10/18 04:29:32;;;;;;;1999.90;999.90;;;13.70;99.90;;;;;;5052550;28;20030;-75
2022/10/18 04:31:58;;;;;;;1999.90;999.90;;;13.80;99.90;;;;;;5053996;28;20037;-75
2022/10/18 04:34:23;;;;;;;1999.90;999.90;;;13.80;99.90;;;;;;5054422;28;20045;-75
2022/10/18 04:36:49;;;;;;;1999.90;999.90;;;13.80;99.90;;;;;;5054079;28;20026;-75
2022/10/18 04:39:15;;;;;;;1999.90;999.90;;;13.90;99.90;;;;;;5054210;28;20040;-75
2022/10/18 04:41:40;;;;;;;1999.90;999.90;;;13.90;99.90;;;;;;5053941;28;20104;-75
2022/10/18 04:44:06;;;;;;;1999.90;999.90;;;13.90;99.90;;;;;;5052278;28;20403;-75
2022/10/18 04:46:32;;;;;;;1999.90;999.90;;;13.90;99.90;;;;;;5053523;28;20064;-75
2022/10/18 04:49:00;;;;;;;1999.90;999.90;;;13.80;99.90;;;;;;5053891;28;20037;-75
2022/10/18 04:51:25;;;;;;;1999.90;999.90;;;13.90;99.90;;;;;;5055497;28;20115;-76
2022/10/18 04:53:51;;;;;;;1999.90;999.90;;;14.00;99.90;;;;;;5057669;28;20143;-75
2022/10/18 04:56:17;;;;;;;1999.90;999.90;;;13.90;99.90;;;;;;5057325;28;20036;-75
2022/10/18 04:58:42;;;;;;;1999.90;999.90;;;13.80;99.90;;;;;;5055686;28;20036;-74
2022/10/18 05:01:08;;;;;;;1999.90;999.90;;;13.90;99.90;;;;;;5055123;28;20037;-74
2022/10/18 05:03:34;;;;;;;1999.90;999.90;;;13.90;99.90;;;;;;5044953;28;20134;-76
2022/10/18 05:05:59;;;;;;;1999.90;999.90;;;13.90;99.90;;;;;;5035531;28;20038;-74
2022/10/18 05:08:25;;;;;;;1999.90;999.90;;;14.00;99.90;;;;;;5036757;28;20042;-74
2022/10/18 05:10:50;;;;;;;1999.90;999.90;;;13.90;99.90;;;;;;5049176;28;20415;-75
2022/10/18 05:13:16;;;;;;;1999.90;999.90;;;13.90;99.90;;;;;;5057086;28;20396;-76
2022/10/18 05:15:41;;;;;;;1999.90;999.90;;;13.90;99.90;;;;;;5059014;28;20056;-79
2022/10/18 05:18:07;;;;;;;1999.90;999.90;;;13.80;99.90;;;;;;5057097;28;20506;-75
2022/10/18 05:20:32;;;;;;;1999.90;999.90;;;13.80;99.90;;;;;;5042601;28;20037;-73
2022/10/18 05:22:58;;;;;;;1999.90;999.90;;;13.80;99.90;;;;;;5055725;28;20029;-75
2022/10/18 05:25:24;;;;;;;1999.90;999.90;;;13.80;99.90;;;;;;5053812;28;20125;-74
2022/10/18 05:27:49;;;;;;;1999.90;999.90;;;13.70;99.90;;;;;;5055795;28;20033;-74
2022/10/18 05:30:15;;;;;;;1999.90;999.90;;;13.70;99.90;;;;;;5057100;28;20056;-75
2022/10/18 05:32:40;;;;;;;1999.90;999.90;;;13.70;99.90;;;;;;5057667;28;20057;-79
2022/10/18 05:35:06;;;;;;;1999.90;999.90;;;13.70;99.90;;;;;;5057671;28;20033;-78
2022/10/18 05:37:32;;;;;;;1999.90;999.90;;;13.70;99.90;;;;;;5058692;28;20061;-78
2022/10/18 05:39:57;;;;;;;1999.90;999.90;;;13.70;99.90;;;;;;5059359;28;20084;-78
2022/10/18 05:42:23;;;;;;;1999.90;999.90;;;13.70;99.90;;;;;;5056473;28;20106;-77
2022/10/18 05:44:48;;;;;;;1999.90;999.90;;;13.70;99.90;;;;;;5056672;28;20042;-78
2022/10/18 05:47:14;;;;;;;1999.90;999.90;;;13.80;99.90;;;;;;5057108;28;20029;-76
2022/10/18 05:49:39;;;;;;;1999.90;999.90;;;13.70;99.90;;;;;;5056895;28;20117;-75
2022/10/18 05:52:05;;;;;;;1999.90;999.90;;;13.70;99.90;;;;;;5056022;28;20075;-78
2022/10/18 05:54:30;;;;;;;1999.90;999.90;;;13.70;99.90;;;;;;5057488;28;20036;-78
2022/10/18 05:56:56;;;;;;;1999.90;999.90;;;13.70;99.90;;;;;;5056984;28;20037;-80
2022/10/18 05:59:21;;;;;;;1999.90;999.90;;;13.60;99.90;;;;;;5053087;28;20033;-79
2022/10/18 06:01:47;;;;;;;1999.90;999.90;;;13.60;99.90;;;;;;5036888;28;20046;-78
2022/10/18 06:04:13;;;;;;;1999.90;999.90;;;13.50;99.90;;;;;;5050209;28;20049;-80
2022/10/18 06:06:39;;;;;;;1999.90;999.90;;;13.50;99.90;;;;;;5057118;28;20103;-78
2022/10/18 06:09:06;;;;;;;1999.90;999.90;;;13.50;99.90;;;;;;5055720;28;20033;-77
2022/10/18 06:11:31;;;;;;;1999.90;999.90;;;13.50;99.90;;;;;;5057523;28;20072;-78
2022/10/18 06:13:57;;;;;;;1999.90;999.90;;;13.60;99.90;;;;;;5057570;28;20108;-78
2022/10/18 06:16:23;;;;;;;1999.90;999.90;;;13.60;99.90;;;;;;5055470;28;20028;-77
2022/10/18 06:18:51;;;;;;;1999.90;999.90;;;13.70;99.90;;;;;;5057336;28;20041;-79
2022/10/18 06:21:17;;;;;;;1999.90;999.90;;;13.80;99.90;;;;;;5057626;28;20033;-84
2022/10/18 06:23:47;;;;;;;1999.90;999.90;;;13.90;99.90;;;;;;5055837;28;20041;-79
2022/10/18 06:26:12;;;;;;;1999.90;999.90;;;13.90;99.90;;;;;;5054809;28;20517;-78
2022/10/18 06:28:38;;;;;;;1999.90;999.90;;;14.00;99.90;;;;;;5056895;28;20037;-77
2022/10/18 06:31:04;;;;;;;1999.90;999.90;;;14.40;99.90;;;;;;5056910;28;20061;-79
2022/10/18 06:33:31;;;;;;;1999.90;999.90;;;14.40;99.90;;;;;;5056569;28;20080;-76
2022/10/18 06:35:59;;;;;;;1999.90;999.90;;;14.50;99.90;;;;;;5055935;28;20537;-76
2022/10/18 06:38:26;;;;;;;1999.90;999.90;;;14.70;99.90;;;;;;5055981;28;20033;-76
2022/10/18 06:40:52;;;;;;;1999.90;999.90;;;14.90;99.90;;;;;;5055412;28;20070;-75
2022/10/18 06:43:17;;;;;;;1999.90;999.90;;;15.00;99.90;;;;;;5055274;28;20041;-75
2022/10/18 06:45:43;;;;;;;1999.90;999.90;;;15.20;99.90;;;;;;5054405;28;20474;-75
2022/10/18 06:48:09;;;;;;;1999.90;999.90;;;15.30;99.90;;;;;;5054988;28;20037;-77
2022/10/18 06:50:34;;;;;;;1999.90;999.90;;;15.50;99.90;;;;;;5055397;28;20038;-76
2022/10/18 06:53:01;;;;;;;1999.90;999.90;;;15.60;99.90;;;;;;5055780;28;20033;-76
2022/10/18 06:55:27;;;;;;;1999.90;999.90;;;15.70;99.90;;;;;;5055725;28;20021;-75
2022/10/18 06:57:52;;;;;;;1999.90;999.90;;;15.70;99.90;;;;;;5053911;28;20041;-76
2022/10/18 07:00:18;;;;;;;1999.90;999.90;;;15.80;99.90;;;;;;5054978;28;20510;-81
2022/10/18 07:02:43;;;;;;;1999.90;999.90;;;15.80;99.90;;;;;;5054629;28;20029;-76
2022/10/18 07:05:10;;;;;;;1999.90;999.90;;;15.90;99.90;;;;;;5055244;28;20062;-82
2022/10/18 07:07:36;;;;;;;1999.90;999.90;;;16.00;99.90;;;;;;5055371;28;20034;-79
2022/10/18 07:10:02;;;;;;;1999.90;999.90;;;16.10;99.90;;;;;;5057755;28;20038;-79
2022/10/18 07:12:29;;;;;;;1999.90;999.90;;;16.00;99.90;;;;;;5057510;28;20036;-78
2022/10/18 07:14:55;;;;;;;1999.90;999.90;;;16.00;99.90;;;;;;5057624;28;20033;-80
2022/10/18 07:17:20;;;;;;;1999.90;999.90;;;16.10;99.90;;;;;;5055407;28;20495;-78
2022/10/18 07:19:46;;;;;;;1999.90;999.90;;;16.30;99.90;;;;;;5055928;28;20045;-78
2022/10/18 07:22:11;;;;;;;1999.90;999.90;;;16.30;99.90;;;;;;5059045;28;20041;-79
2022/10/18 07:24:37;;;;;;;1999.90;999.90;;;16.30;99.90;;;;;;5055314;28;20052;-78
2022/10/18 07:27:02;;;;;;;1999.90;999.90;;;16.40;99.90;;;;;;5056992;28;20034;-77
2022/10/18 07:29:28;;;;;;;1999.90;999.90;;;16.40;99.90;;;;;;5054522;28;20407;-75
2022/10/18 07:31:53;;;;;;;1999.90;999.90;;;16.50;99.90;;;;;;5053623;28;20038;-77
2022/10/18 07:34:19;;;;;;;1999.90;999.90;;;16.70;99.90;;;;;;5054357;28;20496;-77
2022/10/18 07:36:45;;;;;;;1999.90;999.90;;;16.60;99.90;;;;;;5054467;28;20819;-77
2022/10/18 07:39:10;;;;;;;1999.90;999.90;;;16.60;99.90;;;;;;5055227;28;20398;-77
2022/10/18 07:41:36;;;;;;;1999.90;999.90;;;16.50;99.90;;;;;;5053238;28;20045;-77
2022/10/18 07:44:03;;;;;;;1999.90;999.90;;;16.60;99.90;;;;;;5052953;28;20045;-78
2022/10/18 07:46:28;;;;;;;1999.90;999.90;;;16.70;99.90;;;;;;5056746;28;20470;-83
2022/10/18 07:48:54;;;;;;;1999.90;999.90;;;16.80;99.90;;;;;;5059113;28;20048;-79
2022/10/18 07:51:20;;;;;;;1999.90;999.90;;;16.80;99.90;;;;;;5058109;28;20510;-81
2022/10/18 07:53:46;;;;;;;1999.90;999.90;;;16.80;99.90;;;;;;5058956;28;20037;-81
2022/10/18 07:56:19;;;;;;;1999.90;999.90;;;16.80;99.90;;;;;;5058333;28;20526;-79
2022/10/18 07:58:46;;;;;;;1999.90;999.90;;;16.80;99.90;;;;;;5058172;28;20832;-85
2022/10/18 08:01:13;;;;;;;1999.90;999.90;;;17.00;99.90;;;;;;5055744;28;20045;-76
2022/10/18 08:03:40;;;;;;;1999.90;999.90;;;16.90;99.90;;;;;;5054862;28;20041;-76
2022/10/18 08:06:10;;;;;;;1999.90;999.90;;;17.00;99.90;;;;;;5056056;28;20037;-80
2022/10/18 08:08:37;;;;;;;1999.90;999.90;;;17.10;99.90;;;;;;5056552;28;20064;-76
2022/10/18 08:11:08;;;;;;;1999.90;999.90;;;17.20;99.90;;;;;;5054256;28;20111;-75
2022/10/18 08:13:34;;;;;;;1999.90;999.90;;;17.30;99.90;;;;;;5054536;28;20037;-76
2022/10/18 08:16:02;;;;;;;1999.90;999.90;;;17.30;99.90;;;;;;5049808;28;20035;-75
2022/10/18 08:18:28;;;;;;;1999.90;999.90;;;17.30;99.90;;;;;;5030978;28;20038;-75
2022/10/18 08:20:53;;;;;;;1999.90;999.90;;;17.50;99.90;;;;;;5029004;28;20088;-76
2022/10/18 08:23:19;;;;;;;1999.90;999.90;;;17.50;99.90;;;;;;5040101;28;20073;-78
2022/10/18 08:25:44;;;;;;;1999.90;999.90;;;17.60;99.90;;;;;;5035100;28;20053;-75
2022/10/18 08:28:12;;;;;;;1999.90;999.90;;;17.60;99.90;;;;;;5040041;28;20514;-76
2022/10/18 08:30:38;;;;;;;1999.90;999.90;;;17.60;99.90;;;;;;5029803;28;20792;-75
2022/10/18 08:33:04;;;;;;;1999.90;999.90;;;17.60;99.90;;;;;;5033542;28;20041;-77
2022/10/18 08:35:30;;;;;;;1999.90;999.90;;;17.70;99.90;;;;;;5028065;28;20022;-77
2022/10/18 08:37:56;;;;;;;1999.90;999.90;;;17.50;99.90;;;;;;5029809;28;20041;-76
2022/10/18 08:40:22;;;;;;;1999.90;999.90;;;17.50;99.90;;;;;;5026176;28;20061;-76
2022/10/18 08:43:02;;;;;;;1999.90;999.90;;;17.70;99.90;;;;;;5035101;28;20101;-76
2022/10/18 08:45:29;;;;;;;1999.90;999.90;;;17.80;99.90;;;;;;5031190;28;20045;-75
2022/10/18 08:47:56;;;;;;;1999.90;999.90;;;17.90;99.90;;;;;;5038132;28;20805;-75
2022/10/18 08:50:34;;;;;;;1999.90;999.90;;;18.00;99.90;;;;;;5034655;28;20044;-76
2022/10/18 08:53:22;;;;;;;1999.90;999.90;;;17.90;99.90;;;;;;5040937;28;20033;-77
2022/10/18 08:56:13;;;;;;;1999.90;999.90;;;17.80;99.90;;;;;;5029644;28;20042;-77
2022/10/18 08:58:40;;;;;;;1999.90;999.90;;;17.70;99.90;;;;;;5034012;28;20070;-77
2022/10/18 09:01:23;;;;;;;1999.90;999.90;;;17.60;99.90;;;;;;5033230;28;20120;-78
2022/10/18 09:04:08;;;;;;;1999.90;999.90;;;17.50;99.90;;;;;;5035677;28;20037;-77
2022/10/18 09:06:47;;;;;;;1999.90;999.90;;;17.40;99.90;;;;;;5034500;28;20041;-78
2022/10/18 09:09:34;;;;;;;1999.90;999.90;;;17.30;99.90;;;;;;5035139;28;20121;-78
2022/10/18 09:12:18;;;;;;;1999.90;999.90;;;17.40;99.90;;;;;;5033033;28;20510;-77
2022/10/18 09:15:03;;;;;;;1999.90;999.90;;;17.50;99.90;;;;;;5033035;28;20038;-77
2022/10/18 09:17:55;;;;;;;1999.90;999.90;;;17.50;99.90;;;;;;5033829;28;20072;-77
2022/10/18 09:20:31;;;;;;;1999.90;999.90;;;17.40;99.90;;;;;;5033277;28;20038;-77
2022/10/18 09:23:08;;;;;;;1999.90;999.90;;;17.40;99.90;;;;;;5033384;28;20029;-77
2022/10/18 09:25:44;;;;;;;1999.90;999.90;;;17.60;99.90;;;;;;5032865;28;20041;-77
2022/10/18 09:28:29;;;;;;;1999.90;999.90;;;17.70;99.90;;;;;;5032308;28;20041;-78
2022/10/18 09:31:15;;;;;;;1999.90;999.90;;;17.70;99.90;;;;;;5034444;28;20125;-78
2022/10/18 09:34:00;;;;;;;1999.90;999.90;;;17.90;99.90;;;;;;5034742;28;20030;-78
2022/10/18 09:36:34;;;;;;;1999.90;999.90;;;18.10;99.90;;;;;;5034071;28;20069;-78
2022/10/18 09:39:10;;;;;;;1999.90;999.90;;;18.20;99.90;;;;;;5035408;28;20029;-77
2022/10/18 09:41:53;;;;;;;1999.90;999.90;;;18.30;99.90;;;;;;5037239;28;20731;-77
2022/10/18 09:44:18;;;;;;;1999.90;999.90;;;18.30;99.90;;;;;;5036574;28;20065;-78
2022/10/18 09:46:51;;;;;;;1999.90;999.90;;;18.50;99.90;;;;;;5038411;28;20069;-77
2022/10/18 09:49:39;;;;;;;1999.90;999.90;;;18.70;99.90;;;;;;5036016;28;20076;-78
2022/10/18 09:52:12;;;;;;;1999.90;999.90;;;18.80;99.90;;;;;;5037505;28;20068;-77
2022/10/18 09:54:46;;;;;;;1999.90;999.90;;;18.80;99.90;;;;;;5042720;28;20037;-78
2022/10/18 09:57:31;;;;;;;1999.90;999.90;;;18.90;99.90;;;;;;5050902;28;20037;-79
2022/10/18 09:59:57;;;;;;;1999.90;999.90;;;18.80;99.90;;;;;;5052355;28;20038;-78
2022/10/18 10:02:23;;;;;;;1999.90;999.90;;;18.70;99.90;;;;;;5056540;28;20499;-78
2022/10/18 10:04:50;;;;;;;1999.90;999.90;;;18.70;99.90;;;;;;5055006;28;20041;-80
2022/10/18 10:07:19;;;;;;;1999.90;999.90;;;18.60;99.90;;;;;;5056121;28;20515;-80
2022/10/18 10:09:48;;;;;;;1999.90;999.90;;;18.60;99.90;;;;;;5057773;28;20033;-80
2022/10/18 10:12:37;;;;;;;1999.90;999.90;;;18.60;99.90;;;;;;5058540;28;20033;-80
2022/10/18 10:15:20;;;;;;;1999.90;999.90;;;18.80;99.90;;;;;;5058105;28;20041;-81
2022/10/18 10:18:20;;;;;;;1999.90;999.90;;;19.20;99.90;;;;;;5056750;28;20451;-79
2022/10/18 10:20:53;;;;;;;1999.90;999.90;;;19.70;99.90;;;;;;5055438;28;20048;-79
2022/10/18 10:23:27;;;;;;;1999.90;999.90;;;20.10;99.90;;;;;;5055889;28;20048;-78
2022/10/18 10:26:23;;;;;;;1999.90;999.90;;;20.40;99.90;;;;;;5057701;28;20029;-78
2022/10/18 10:28:49;;;;;;;1999.90;999.90;;;20.70;99.90;;;;;;5050762;28;20140;-79
2022/10/18 10:31:24;;;;;;;1999.90;999.90;;;20.90;99.90;;;;;;5055775;28;20120;-79
2022/10/18 10:34:11;;;;;;;1999.90;999.90;;;20.80;99.90;;;;;;5056560;28;20049;-79
2022/10/18 10:36:46;;;;;;;1999.90;999.90;;;20.70;99.90;;;;;;5057157;28;20091;-78
2022/10/18 10:39:17;;;;;;;1999.90;999.90;;;20.60;99.90;;;;;;5057432;28;20041;-80
2022/10/18 10:41:50;;;;;;;1999.90;999.90;;;20.60;99.90;;;;;;5058491;28;20061;-78
2022/10/18 10:44:18;;;;;;;1999.90;999.90;;;20.30;99.90;;;;;;5054038;28;20045;-77
2022/10/18 10:46:45;;;;;;;1999.90;999.90;;;20.30;99.90;;;;;;5055331;28;20109;-77
2022/10/18 10:49:20;;;;;;;1999.90;999.90;;;20.10;99.90;;;;;;5055566;28;20789;-78
2022/10/18 10:51:54;;;;;;;1999.90;999.90;;;20.20;99.90;;;;;;5055420;28;20037;-78
2022/10/18 10:54:24;;;;;;;1999.90;999.90;;;20.50;99.90;;;;;;5075850;22;20045;-77
2022/10/18 10:57:11;;;;;;;1999.90;999.90;;;20.80;99.90;;;;;;5055118;28;20097;-78
2022/10/18 10:59:50;;;;;;;1999.90;999.90;;;21.10;99.90;;;;;;5054132;28;20056;-77
2022/10/18 11:02:35;;;;;;;1999.90;999.90;;;21.00;99.90;;;;;;5043228;28;20127;-81
2022/10/18 11:05:23;;;;;;;1999.90;999.90;;;20.90;99.90;;;;;;5040842;28;20096;-81
2022/10/18 11:07:54;;;;;;;1999.90;999.90;;;20.90;99.90;;;;;;5034351;28;20026;-78
2022/10/18 11:10:23;;;;;;;1999.90;999.90;;;20.70;99.90;;;;;;5033164;28;20513;-77
2022/10/18 11:13:07;;;;;;;1999.90;999.90;;;20.70;99.90;;;;;;5035770;28;20112;-79
2022/10/18 11:15:42;;;;;;;1999.90;999.90;;;20.90;99.90;;;;;;5035295;28;20072;-77
2022/10/18 11:18:20;;;;;;;1999.90;999.90;;;20.70;99.90;;;;;;5038066;28;20116;-79
2022/10/18 11:20:55;;;;;;;1999.90;999.90;;;20.30;99.90;;;;;;5036362;28;20444;-77
2022/10/18 11:23:24;;;;;;;1999.90;999.90;;;20.10;99.90;;;;;;5035096;28;20049;-77
2022/10/18 11:26:18;;;;;;;1999.90;999.90;;;20.10;99.90;;;;;;5036174;28;20038;-77
2022/10/18 11:29:14;;;;;;;1999.90;999.90;;;20.40;99.90;;;;;;5037065;28;20097;-77
2022/10/18 11:32:13;;;;;;;1999.90;999.90;;;20.50;99.90;;;;;;5036337;28;20111;-76
2022/10/18 11:35:01;;;;;;;1999.90;999.90;;;20.50;99.90;;;;;;5036303;28;20121;-80
2022/10/18 11:37:53;;;;;;;1999.90;999.90;;;20.40;99.90;;;;;;5034620;28;20468;-83
2022/10/18 11:40:50;;;;;;;1999.90;999.90;;;20.30;99.90;;;;;;5017979;28;20035;-78
2022/10/18 11:43:26;;;;;;;1999.90;999.90;;;20.30;99.90;;;;;;5019134;28;20038;-78
2022/10/18 11:45:57;;;;;;;1999.90;999.90;;;20.40;99.90;;;;;;5020041;28;20030;-79
2022/10/18 11:48:31;;;;;;;1999.90;999.90;;;20.60;99.90;;;;;;5017527;28;20757;-78
2022/10/18 11:51:04;;;;;;;1999.90;999.90;;;20.70;99.90;;;;;;5021691;28;20042;-82
2022/10/18 11:54:04;;;;;;;1999.90;999.90;;;20.70;99.90;;;;;;5032842;28;20045;-78
2022/10/18 11:56:35;;;;;;;1999.90;999.90;;;20.50;99.90;;;;;;5032151;28;20112;-78
2022/10/18 11:59:26;;;;;;;1999.90;999.90;;;20.40;99.90;;;;;;5035087;28;20030;-77
2022/10/18 12:02:13;;;;;;;1999.90;999.90;;;20.30;99.90;;;;;;5054478;28;20030;-77
2022/10/18 12:04:49;;;;;;;1999.90;999.90;;;20.20;99.90;;;;;;5047021;28;20076;-77
2022/10/18 12:07:18;;;;;;;1999.90;999.90;;;20.10;99.90;;;;;;5035060;28;20030;-77
2022/10/18 12:09:46;;;;;;;1999.90;999.90;;;20.30;99.90;;;;;;5033750;28;20029;-78
2022/10/18 12:12:15;;;;;;;1999.90;999.90;;;20.80;99.90;;;;;;5034272;28;20034;-77
2022/10/18 12:14:55;;;;;;;1999.90;999.90;;;21.20;99.90;;;;;;5033843;28;20065;-78
2022/10/18 12:17:34;;;;;;;1999.90;999.90;;;21.30;99.90;;;;;;5033232;28;20037;-77
2022/10/18 12:20:06;;;;;;;1999.90;999.90;;;21.80;99.90;;;;;;5034146;28;20064;-78
2022/10/18 12:22:40;;;;;;;1999.90;999.90;;;22.20;99.90;;;;;;5035039;28;20496;-77
2022/10/18 12:25:11;;;;;;;1999.90;999.90;;;22.70;99.90;;;;;;5034190;28;20045;-78
2022/10/18 12:27:47;;;;;;;1999.90;999.90;;;23.00;99.90;;;;;;5034239;28;20034;-78
2022/10/18 12:30:26;;;;;;;1999.90;999.90;;;22.80;99.90;;;;;;5034730;28;20076;-77
2022/10/18 12:33:03;;;;;;;1999.90;999.90;;;23.00;99.90;;;;;;5034326;28;20038;-78
2022/10/18 12:35:33;;;;;;;1999.90;999.90;;;22.70;99.90;;;;;;5034343;28;20029;-77
2022/10/18 12:38:24;;;;;;;1999.90;999.90;;;22.40;99.90;;;;;;5035034;28;20030;-77
2022/10/18 12:40:52;;;;;;;1999.90;999.90;;;22.10;99.90;;;;;;5033220;28;20038;-78
2022/10/18 12:43:35;;;;;;;1999.90;999.90;;;21.70;99.90;;;;;;5034948;28;20088;-79
2022/10/18 12:46:03;;;;;;;1999.90;999.90;;;21.80;99.90;;;;;;5035415;28;20026;-79
2022/10/18 12:48:35;;;;;;;1999.90;999.90;;;21.80;99.90;;;;;;5033862;28;20038;-80
2022/10/18 12:51:19;;;;;;;1999.90;999.90;;;21.80;99.90;;;;;;5033706;28;20129;-79
2022/10/18 12:54:01;;;;;;;1999.90;999.90;;;21.80;99.90;;;;;;5031266;28;20033;-79
2022/10/18 12:56:27;;;;;;;1999.90;999.90;;;21.80;99.90;;;;;;5035769;28;20034;-82
2022/10/18 12:59:12;;;;;;;1999.90;999.90;;;21.70;99.90;;;;;;5036258;28;20038;-81
2022/10/18 13:01:50;;;;;;;1999.90;999.90;;;21.40;99.90;;;;;;5032813;28;20042;-79
2022/10/18 13:04:28;;;;;;;1999.90;999.90;;;21.30;99.90;;;;;;5014021;28;20039;-79
2022/10/18 13:06:56;;;;;;;1999.90;999.90;;;21.50;99.90;;;;;;5033062;28;20065;-78
2022/10/18 13:09:24;;;;;;;1999.90;999.90;;;21.70;99.90;;;;;;5031093;28;20044;-78
2022/10/18 13:11:54;;;;;;;1999.90;999.90;;;22.00;99.90;;;;;;5033967;28;20041;-79
2022/10/18 13:14:39;;;;;;;1999.90;999.90;;;22.40;99.90;;;;;;5036745;28;20065;-78
2022/10/18 13:17:32;;;;;;;1999.90;999.90;;;22.80;99.90;;;;;;5037068;28;20038;-78
2022/10/18 13:20:21;;;;;;;1999.90;999.90;;;22.90;99.90;;;;;;5036725;28;20034;-78
2022/10/18 13:23:03;;;;;;;1999.90;999.90;;;23.00;99.90;;;;;;5017810;28;20062;-77
2022/10/18 13:25:51;;;;;;;1999.90;999.90;;;23.00;99.90;;;;;;5017284;28;20535;-77
2022/10/18 13:28:21;;;;;;;1999.90;999.90;;;23.20;99.90;;;;;;5017481;28;20515;-77
2022/10/18 13:30:58;;;;;;;1999.90;999.90;;;23.30;99.90;;;;;;5017387;28;20035;-79
2022/10/18 13:33:39;;;;;;;1999.90;999.90;;;23.20;99.90;;;;;;5024989;28;20045;-77
2022/10/18 13:36:17;;;;;;;1999.90;999.90;;;22.90;99.90;;;;;;5029306;28;20539;-78
2022/10/18 13:38:57;;;;;;;1999.90;999.90;;;22.60;99.90;;;;;;5027824;28;20317;-77
2022/10/18 13:41:31;;;;;;;1999.90;999.90;;;22.40;99.90;;;;;;5017505;28;20034;-77
2022/10/18 13:44:38;;;;;;;1999.90;999.90;;;22.50;99.90;;;;;;5017587;28;20847;-77
2022/10/18 13:47:04;;;;;;;1999.90;999.90;;;22.30;99.90;;;;;;5014799;28;20420;-77
2022/10/18 13:49:38;;;;;;;1999.90;999.90;;;22.10;99.90;;;;;;5023664;28;20049;-78
2022/10/18 13:52:27;;;;;;;1999.90;999.90;;;21.90;99.90;;;;;;5030411;28;20029;-78
2022/10/18 13:55:15;;;;;;;1999.90;999.90;;;21.90;99.90;;;;;;5025191;28;20062;-77
2022/10/18 13:57:59;;;;;;;1999.90;999.90;;;21.70;99.90;;;;;;5037730;28;20772;-77
2022/10/18 14:01:05;;;;;;;1999.90;999.90;;;21.60;99.90;;;;;;5016272;28;20535;-77
2022/10/18 14:03:48;;;;;;;1999.90;999.90;;;21.50;99.90;;;;;;5018103;28;20042;-79
2022/10/18 14:06:37;;;;;;;1999.90;999.90;;;21.50;99.90;;;;;;5025036;28;20060;-77
2022/10/18 14:09:17;;;;;;;1999.90;999.90;;;21.30;99.90;;;;;;5029429;28;20128;-77
2022/10/18 14:12:07;;;;;;;1999.90;999.90;;;21.10;99.90;;;;;;5030918;28;20036;-77
2022/10/18 14:14:49;;;;;;;1999.90;999.90;;;21.00;99.90;;;;;;5026887;28;20554;-77
2022/10/18 14:17:37;;;;;;;1999.90;999.90;;;20.80;99.90;;;;;;5036459;28;20041;-77
2022/10/18 14:20:32;;;;;;;1999.90;999.90;;;20.70;99.90;;;;;;5016159;28;20315;-77
2022/10/18 14:23:26;;;;;;;1999.90;999.90;;;20.60;99.90;;;;;;5032134;28;20080;-77
2022/10/18 14:26:06;;;;;;;1999.90;999.90;;;20.40;99.90;;;;;;5026165;28;20046;-77
2022/10/18 14:28:33;;;;;;;1999.90;999.90;;;20.40;99.90;;;;;;5036169;28;20036;-77
2022/10/18 14:31:05;;;;;;;1999.90;999.90;;;20.40;99.90;;;;;;5035794;28;20088;-77
2022/10/18 14:33:37;;;;;;;1999.90;999.90;;;20.40;99.90;;;;;;5027846;28;20034;-76
2022/10/18 14:36:08;;;;;;;1999.90;999.90;;;20.50;99.90;;;;;;5014213;28;20043;-77
2022/10/18 14:38:43;;;;;;;1999.90;999.90;;;20.60;99.90;;;;;;5050091;28;20129;-77
2022/10/18 14:41:21;;;;;;;1999.90;999.90;;;20.60;99.90;;;;;;5034724;28;20133;-76
2022/10/18 14:43:47;;;;;;;1999.90;999.90;;;20.50;99.90;;;;;;5016183;28;20038;-76
2022/10/18 14:46:22;;;;;;;1999.90;999.90;;;20.40;99.90;;;;;;5013850;28;20068;-76
2022/10/18 14:48:59;;;;;;;1999.90;999.90;;;20.30;99.90;;;;;;5016499;28;20399;-79
2022/10/18 14:51:28;;;;;;;1999.90;999.90;;;20.20;99.90;;;;;;5040673;28;20034;-76
2022/10/18 14:53:54;;;;;;;1999.90;999.90;;;20.10;99.90;;;;;;5030197;28;20033;-76
2022/10/18 14:56:28;;;;;;;1999.90;999.90;;;20.10;99.90;;;;;;5036437;28;20037;-76
2022/10/18 14:58:56;;;;;;;1999.90;999.90;;;20.00;99.90;;;;;;5028626;28;20116;-77
2022/10/18 15:01:25;;;;;;;1999.90;999.90;;;20.00;99.90;;;;;;5034239;28;20030;-79
2022/10/18 15:04:14;;;;;;;1999.90;999.90;;;20.00;99.90;;;;;;5034972;28;20037;-77
2022/10/18 15:06:43;;;;;;;1999.90;999.90;;;20.00;99.90;;;;;;5033361;28;20042;-77
2022/10/18 15:09:11;;;;;;;1999.90;999.90;;;20.00;99.90;;;;;;5033451;28;20033;-77
2022/10/18 15:11:40;;;;;;;1999.90;999.90;;;20.00;99.90;;;;;;5051671;28;20033;-76
2022/10/18 15:14:13;;;;;;;1999.90;999.90;;;20.10;99.90;;;;;;5034882;28;20166;-77
2022/10/18 15:16:39;;;;;;;1999.90;999.90;;;20.00;99.90;;;;;;5034953;28;20076;-79
2022/10/18 15:19:27;;;;;;;1999.90;999.90;;;20.20;99.90;;;;;;5020627;28;20042;-79
2022/10/18 15:21:57;;;;;;;1999.90;999.90;;;20.20;99.90;;;;;;5038271;28;20038;-78
2022/10/18 15:24:25;;;;;;;1999.90;999.90;;;20.10;99.90;;;;;;5035106;28;20038;-77
2022/10/18 15:26:53;;;;;;;1999.90;999.90;;;20.00;99.90;;;;;;5033463;28;20033;-81
2022/10/18 15:29:20;;;;;;;1999.90;999.90;;;20.00;99.90;;;;;;5036288;28;20041;-79
2022/10/18 15:31:48;;;;;;;1999.90;999.90;;;19.80;99.90;;;;;;5034886;28;20026;-77
2022/10/18 15:34:24;;;;;;;1999.90;999.90;;;19.60;99.90;;;;;;5033110;28;20029;-78
2022/10/18 15:36:54;;;;;;;1999.90;999.90;;;19.50;99.90;;;;;;5020888;28;20045;-79
2022/10/18 15:39:26;;;;;;;1999.90;999.90;;;19.40;99.90;;;;;;5035155;28;20034;-77
2022/10/18 15:41:56;;;;;;;1999.90;999.90;;;19.30;99.90;;;;;;5035443;28;20034;-75
2022/10/18 15:44:24;;;;;;;1999.90;999.90;;;19.30;99.90;;;;;;5035042;28;20042;-78
2022/10/18 15:46:55;;;;;;;1999.90;999.90;;;19.30;99.90;;;;;;5036203;28;20037;-76
2022/10/18 15:49:24;;;;;;;1999.90;999.90;;;19.30;99.90;;;;;;5035219;28;20034;-78
2022/10/18 15:52:28;;;;;;;1999.90;999.90;;;19.20;99.90;;;;;;5036515;28;20103;-77
2022/10/18 15:54:54;;;;;;;1999.90;999.90;;;19.20;99.90;;;;;;5030957;28;20123;-78
2022/10/18 15:57:20;;;;;;;1999.90;999.90;;;19.00;99.90;;;;;;5035995;28;20034;-80
2022/10/18 15:59:53;;;;;;;1999.90;999.90;;;18.90;99.90;;;;;;5035366;28;20113;-79
2022/10/18 16:02:19;;;;;;;1999.90;999.90;;;19.10;99.90;;;;;;5022829;28;20030;-78
2022/10/18 16:04:46;;;;;;;1999.90;999.90;;;18.90;99.90;;;;;;5031497;28;20404;-77
2022/10/18 16:07:12;;;;;;;1999.90;999.90;;;18.70;99.90;;;;;;5030197;28;20050;-77
2022/10/18 16:09:38;;;;;;;1999.90;999.90;;;18.70;99.90;;;;;;5034562;28;20034;-77
2022/10/18 16:12:03;;;;;;;1999.90;999.90;;;18.60;99.90;;;;;;5035570;28;20034;-78
2022/10/18 16:14:30;;;;;;;1999.90;999.90;;;18.50;99.90;;;;;;5026549;28;20026;-81
2022/10/18 16:16:59;;;;;;;1999.90;999.90;;;18.50;99.90;;;;;;5014504;28;20165;-76
2022/10/18 16:19:25;;;;;;;1999.90;999.90;;;18.40;99.90;;;;;;5032045;28;20117;-76
2022/10/18 16:21:52;;;;;;;1999.90;999.90;;;18.50;99.90;;;;;;5034934;28;20041;-76
2022/10/18 16:24:18;;;;;;;1999.90;999.90;;;18.40;99.90;;;;;;5025617;28;20129;-84